Time;durP1;ratioP1;P1;durP2;ratioP2;P2;SDS_P1;SDS_P2;PMS_P1;PMS_P2;Temp;Humidity;BMP_temperature;BMP_pressure;BME280_temperature;BME280_humidity;BME280_pressure;Samples;Min_cycle;Max_cycle;Signal;HPM_P1;HPM_P2
2023/11/30 00:01:00;;;;;;;13.27;8.25;;;9.00;99.30;;;;;;4249462;27;20114;-57
2023/11/30 00:03:03;;;;;;;16.90;8.57;;;8.90;99.10;;;;;;4249193;27;20046;-56
2023/11/30 00:05:07;;;;;;;15.15;7.75;;;8.70;98.80;;;;;;4249254;27;20071;-56
2023/11/30 00:07:12;;;;;;;15.40;8.60;;;8.70;99.20;;;;;;4249199;27;20174;-57
2023/11/30 00:09:14;;;;;;;;;;;8.60;99.00;;;;;;4249646;27;20054;-56
2023/11/30 00:11:16;;;;;;;15.77;8.23;;;8.70;99.60;;;;;;4249244;27;19942;-57
2023/11/30 00:13:18;;;;;;;9.73;7.80;;;8.70;99.50;;;;;;4248988;27;20497;-56
2023/11/30 00:15:22;;;;;;;17.38;9.73;;;8.80;99.20;;;;;;4249017;27;20054;-57
2023/11/30 00:17:24;;;;;;;15.07;8.55;;;8.80;99.10;;;;;;4248940;27;20070;-57
2023/11/30 00:19:26;;;;;;;17.10;9.32;;;8.80;99.30;;;;;;4248887;27;20039;-58
2023/11/30 00:21:28;;;;;;;21.17;11.20;;;9.00;99.40;;;;;;4248549;27;20066;-57
2023/11/30 00:23:32;;;;;;;14.25;8.88;;;9.00;99.30;;;;;;4249126;27;20047;-53
2023/11/30 00:25:34;;;;;;;15.93;9.80;;;9.00;99.40;;;;;;4248894;27;20382;-58
2023/11/30 00:27:36;;;;;;;18.55;11.38;;;8.90;99.30;;;;;;4249233;27;20053;-58
2023/11/30 00:29:38;;;;;;;16.77;10.20;;;8.80;99.50;;;;;;4249439;27;20077;-56
2023/11/30 00:31:41;;;;;;;14.82;9.02;;;8.80;99.50;;;;;;4248583;27;20047;-58
2023/11/30 00:33:43;;;;;;;16.83;9.95;;;8.80;99.50;;;;;;4248844;27;20860;-57
2023/11/30 00:35:45;;;;;;;15.02;9.70;;;9.00;99.60;;;;;;4248412;27;20051;-57
2023/11/30 00:37:47;;;;;;;17.10;10.93;;;9.00;99.30;;;;;;4248853;27;20405;-58
2023/11/30 00:39:49;;;;;;;17.70;10.90;;;9.00;99.20;;;;;;4248695;27;20047;-57
2023/11/30 00:41:51;;;;;;;14.75;10.00;;;8.90;99.40;;;;;;4248404;27;20446;-58
2023/11/30 00:43:54;;;;;;;21.17;11.45;;;8.90;99.20;;;;;;4248991;27;20133;-57
2023/11/30 00:45:56;;;;;;;21.65;11.70;;;9.00;99.30;;;;;;4249106;27;20112;-57
2023/11/30 00:48:11;;;;;;;15.63;11.10;;;8.90;98.80;;;;;;4248770;27;20108;-58
2023/11/30 00:50:14;;;;;;;14.85;9.90;;;8.70;99.10;;;;;;4247373;27;20043;-58
2023/11/30 00:52:16;;;;;;;17.27;11.00;;;8.70;99.50;;;;;;4248403;27;20538;-57
2023/11/30 00:54:18;;;;;;;19.30;11.57;;;8.80;98.90;;;;;;4248391;27;20054;-57
2023/11/30 00:56:20;;;;;;;16.83;10.10;;;8.80;98.90;;;;;;4248421;27;20059;-56
2023/11/30 00:58:22;;;;;;;17.70;10.95;;;8.80;98.60;;;;;;4248257;27;20047;-57
2023/11/30 01:00:24;;;;;;;16.40;11.18;;;8.80;99.00;;;;;;4248215;27;20053;-58
2023/11/30 01:02:26;;;;;;;18.35;10.55;;;8.70;98.70;;;;;;4229922;28;20493;-57
2023/11/30 01:04:29;;;;;;;16.55;9.95;;;8.80;99.30;;;;;;4247831;27;20141;-57
2023/11/30 01:06:31;;;;;;;19.63;11.70;;;8.80;99.20;;;;;;4248119;27;20051;-54
2023/11/30 01:08:34;;;;;;;17.00;10.57;;;8.80;98.80;;;;;;4248107;27;20481;-54
2023/11/30 01:10:36;;;;;;;23.02;11.50;;;8.60;98.70;;;;;;4248545;27;20416;-55
2023/11/30 01:12:38;;;;;;;15.50;10.40;;;8.50;98.70;;;;;;4248295;27;20100;-56
2023/11/30 01:14:41;;;;;;;16.90;9.60;;;8.50;99.40;;;;;;4247819;27;20058;-57
2023/11/30 01:16:44;;;;;;;16.75;10.60;;;8.40;99.20;;;;;;4247909;27;20483;-56
2023/11/30 01:18:46;;;;;;;16.02;9.90;;;8.40;99.00;;;;;;4247517;27;20043;-57
2023/11/30 01:20:50;;;;;;;15.45;9.60;;;8.30;99.40;;;;;;4248140;27;20125;-57
2023/11/30 01:22:52;;;;;;;17.40;10.35;;;8.40;99.70;;;;;;4248109;27;20054;-56
2023/11/30 01:24:54;;;;;;;14.30;10.68;;;8.50;99.30;;;;;;4248063;27;20039;-55
2023/11/30 01:26:56;;;;;;;16.92;10.60;;;8.60;98.80;;;;;;4229540;28;20043;-55
2023/11/30 01:28:58;;;;;;;17.30;10.55;;;8.40;98.60;;;;;;4247870;27;20464;-56
2023/11/30 01:31:00;;;;;;;19.25;10.40;;;8.30;99.20;;;;;;4247748;27;20043;-58
2023/11/30 01:33:03;;;;;;;16.95;9.77;;;8.30;99.40;;;;;;4247519;27;20043;-57
2023/11/30 01:35:06;;;;;;;16.05;10.32;;;8.30;99.60;;;;;;4247918;27;20405;-57
2023/11/30 01:37:10;;;;;;;18.35;10.40;;;8.40;99.50;;;;;;4247670;27;20221;-57
2023/11/30 01:39:14;;;;;;;16.90;11.00;;;8.40;99.10;;;;;;4247778;27;20047;-57
2023/11/30 01:41:16;;;;;;;18.17;9.85;;;8.30;99.00;;;;;;4247752;27;20071;-56
2023/11/30 01:43:20;;;;;;;16.73;9.75;;;8.30;99.90;;;;;;4247431;27;20054;-56
2023/11/30 01:45:23;;;;;;;18.10;10.40;;;8.50;99.50;;;;;;4247534;27;20047;-57
2023/11/30 01:47:25;;;;;;;16.25;10.57;;;8.60;99.40;;;;;;4247306;27;20047;-57
2023/11/30 01:49:27;;;;;;;14.52;9.95;;;8.50;98.90;;;;;;4247718;27;20047;-57
2023/11/30 01:51:31;;;;;;;16.40;10.70;;;8.40;98.90;;;;;;4247870;27;20054;-56
2023/11/30 01:53:36;;;;;;;15.10;9.82;;;8.30;98.70;;;;;;4248062;27;20043;-57
2023/11/30 01:55:39;;;;;;;21.92;11.45;;;8.30;99.20;;;;;;4248501;27;20043;-56
2023/11/30 01:57:42;;;;;;;18.73;11.82;;;8.30;98.80;;;;;;4248937;27;20095;-60
2023/11/30 01:59:45;;;;;;;17.65;10.75;;;8.30;98.50;;;;;;4249290;27;20054;-56
2023/11/30 02:01:47;;;;;;;20.30;11.63;;;8.20;98.80;;;;;;4247437;27;20039;-57
2023/11/30 02:03:50;;;;;;;18.35;11.23;;;8.10;98.90;;;;;;4247439;27;20055;-57
2023/11/30 02:05:52;;;;;;;15.40;10.02;;;8.10;99.10;;;;;;4247609;27;20069;-57
2023/11/30 02:07:54;;;;;;;22.70;12.38;;;8.10;99.10;;;;;;4247338;28;20092;-56
2023/11/30 02:09:58;;;;;;;21.70;11.98;;;8.00;99.20;;;;;;4247279;28;20047;-58
2023/11/30 02:12:00;;;;;;;16.50;10.93;;;7.90;99.30;;;;;;4247511;28;20055;-57
2023/11/30 02:14:02;;;;;;;20.27;10.40;;;7.80;99.40;;;;;;4247429;28;20046;-57
2023/11/30 02:16:05;;;;;;;18.98;10.88;;;7.90;99.90;;;;;;4246910;28;20413;-58
2023/11/30 02:18:07;;;;;;;15.32;10.63;;;7.90;99.80;;;;;;4228930;28;20043;-56
2023/11/30 02:20:10;;;;;;;18.23;10.30;;;8.00;99.90;;;;;;4247573;28;20409;-56
2023/11/30 02:22:14;;;;;;;17.50;11.88;;;8.00;99.80;;;;;;4247303;28;20047;-57
2023/11/30 02:24:15;;;;;;;19.42;12.00;;;8.00;99.90;;;;;;4247274;28;20058;-57
2023/11/30 02:26:18;;;;;;;15.70;10.80;;;7.90;99.70;;;;;;4247114;28;20054;-56
2023/11/30 02:28:20;;;;;;;18.38;10.75;;;8.00;99.90;;;;;;4247239;28;20061;-56
2023/11/30 02:30:22;;;;;;;22.33;11.18;;;8.00;99.60;;;;;;4246909;28;20090;-56
2023/11/30 02:32:24;;;;;;;14.57;9.98;;;8.00;99.60;;;;;;4247526;28;20112;-57
2023/11/30 02:34:26;;;;;;;15.90;12.10;;;7.90;99.90;;;;;;4247264;28;20051;-58
2023/11/30 02:36:28;;;;;;;17.05;11.75;;;7.80;99.90;;;;;;4247141;28;20426;-58
2023/11/30 02:38:32;;;;;;;16.08;9.98;;;7.80;99.90;;;;;;4247212;28;20047;-57
2023/11/30 02:40:34;;;;;;;18.90;10.90;;;7.90;99.90;;;;;;4247361;28;20108;-57
2023/11/30 02:42:36;;;;;;;13.40;9.88;;;7.80;99.90;;;;;;4246997;28;20039;-56
2023/11/30 02:44:38;;;;;;;15.35;11.18;;;7.90;99.90;;;;;;4247103;28;20044;-57
2023/11/30 02:46:40;;;;;;;15.80;10.68;;;7.80;99.70;;;;;;4246796;28;20085;-57
2023/11/30 02:48:42;;;;;;;18.05;10.55;;;7.80;99.90;;;;;;4247195;28;20418;-57
2023/11/30 02:50:44;;;;;;;20.05;11.07;;;7.90;99.90;;;;;;4247048;28;20102;-57
2023/11/30 02:52:46;;;;;;;20.05;11.07;;;7.90;99.80;;;;;;4247005;28;20140;-57
2023/11/30 02:54:49;;;;;;;15.45;10.63;;;7.90;99.90;;;;;;4246886;28;20046;-56
2023/11/30 02:56:51;;;;;;;16.45;10.70;;;7.90;99.40;;;;;;4247242;28;20050;-56
2023/11/30 02:58:53;;;;;;;13.68;10.13;;;7.90;99.80;;;;;;4247174;28;20104;-57
2023/11/30 03:00:55;;;;;;;16.88;11.60;;;7.80;99.90;;;;;;4246721;28;20074;-58
2023/11/30 03:02:57;;;;;;;19.58;11.77;;;7.80;99.30;;;;;;4247140;28;20043;-58
2023/11/30 03:05:00;;;;;;;16.98;11.25;;;7.70;99.10;;;;;;4246716;28;20100;-57
2023/11/30 03:07:02;;;;;;;18.48;11.48;;;7.60;99.30;;;;;;4247052;28;20047;-56
2023/11/30 03:09:04;;;;;;;18.65;12.23;;;7.60;99.40;;;;;;4246861;28;20047;-56
2023/11/30 03:11:08;;;;;;;17.23;12.63;;;7.50;99.40;;;;;;4246738;28;20047;-57
2023/11/30 03:13:10;;;;;;;18.60;11.82;;;7.50;99.40;;;;;;4247927;27;20047;-56
2023/11/30 03:15:14;;;;;;;19.65;11.60;;;7.40;99.50;;;;;;4231464;28;20071;-56
2023/11/30 03:17:16;;;;;;;18.73;12.50;;;7.30;99.80;;;;;;4250045;27;20054;-58
2023/11/30 03:19:18;;;;;;;16.30;11.63;;;7.30;99.60;;;;;;4249900;27;20055;-55
2023/11/30 03:21:21;;;;;;;16.33;11.15;;;7.40;99.90;;;;;;4250101;27;20472;-57
2023/11/30 03:23:23;;;;;;;19.27;11.68;;;7.50;99.90;;;;;;4249783;27;20457;-55
2023/11/30 03:25:25;;;;;;;21.15;12.40;;;7.40;99.80;;;;;;4249921;27;20061;-56
2023/11/30 03:27:28;;;;;;;20.88;13.68;;;7.30;99.40;;;;;;4249621;27;20043;-57
2023/11/30 03:29:30;;;;;;;17.55;12.25;;;7.40;99.90;;;;;;4249341;27;20600;-56
2023/11/30 03:31:32;;;;;;;20.88;12.55;;;7.50;99.90;;;;;;4249758;27;20104;-57
2023/11/30 03:33:36;;;;;;;19.67;13.07;;;7.40;99.80;;;;;;4249898;27;20108;-57
2023/11/30 03:35:38;;;;;;;19.38;13.75;;;7.50;99.70;;;;;;4249842;27;20049;-56
2023/11/30 03:37:42;;;;;;;18.20;13.45;;;7.40;99.80;;;;;;4249791;27;20055;-56
2023/11/30 03:39:44;;;;;;;16.33;12.57;;;7.30;99.40;;;;;;4249811;27;20051;-57
2023/11/30 03:41:46;;;;;;;15.18;11.65;;;7.30;99.90;;;;;;4249722;27;20104;-57
2023/11/30 03:43:51;;;;;;;20.58;10.80;;;7.40;99.70;;;;;;4249344;27;20043;-57
2023/11/30 03:45:53;;;;;;;19.05;10.95;;;7.30;99.80;;;;;;4249959;27;20063;-56
2023/11/30 03:47:55;;;;;;;18.52;12.80;;;7.30;99.90;;;;;;4249682;27;20047;-58
2023/11/30 03:49:57;;;;;;;18.95;11.93;;;7.20;99.80;;;;;;4249631;27;20123;-57
2023/11/30 03:51:59;;;;;;;18.75;12.10;;;7.20;99.70;;;;;;4249865;27;20125;-56
2023/11/30 03:54:01;;;;;;;18.08;11.55;;;7.20;99.80;;;;;;4249910;27;20050;-57
2023/11/30 03:56:04;;;;;;;19.10;11.75;;;7.30;99.90;;;;;;4250015;27;20066;-57
2023/11/30 03:58:06;;;;;;;19.20;12.93;;;7.20;99.90;;;;;;4249736;27;20057;-56
2023/11/30 04:00:13;;;;;;;17.50;12.85;;;7.20;99.80;;;;;;4249937;27;20053;-57
2023/11/30 04:02:15;;;;;;;17.95;10.90;;;7.10;99.80;;;;;;4250471;27;20092;-60
2023/11/30 04:04:18;;;;;;;13.68;11.02;;;7.10;99.90;;;;;;4249644;27;20043;-58
2023/11/30 04:06:22;;;;;;;19.50;12.13;;;7.10;99.60;;;;;;4250076;27;20063;-59
2023/11/30 04:08:24;;;;;;;14.77;11.43;;;7.00;99.60;;;;;;4250718;27;20096;-56
2023/11/30 04:10:26;;;;;;;14.60;10.35;;;7.00;99.70;;;;;;4250511;27;20139;-56
2023/11/30 04:12:28;;;;;;;16.15;11.15;;;6.90;99.90;;;;;;4230657;28;20045;-57
2023/11/30 04:14:30;;;;;;;16.20;10.50;;;7.00;99.80;;;;;;4249365;27;20053;-57
2023/11/30 04:16:34;;;;;;;23.52;12.75;;;6.90;99.90;;;;;;4249370;27;20151;-57
2023/11/30 04:18:36;;;;;;;15.57;10.23;;;6.90;99.90;;;;;;4249190;27;20119;-58
2023/11/30 04:20:38;;;;;;;25.88;12.00;;;6.80;99.90;;;;;;4249140;27;20047;-57
2023/11/30 04:22:40;;;;;;;19.23;12.88;;;6.80;99.90;;;;;;4248882;27;20055;-57
2023/11/30 04:24:43;;;;;;;18.42;12.52;;;6.70;99.90;;;;;;4248675;27;20078;-56
2023/11/30 04:26:45;;;;;;;23.20;11.60;;;6.70;99.90;;;;;;4230212;28;20140;-54
2023/11/30 04:28:47;;;;;;;20.35;13.10;;;6.70;99.90;;;;;;4248819;27;20079;-53
2023/11/30 04:30:49;;;;;;;21.38;13.10;;;6.70;99.90;;;;;;4230389;28;20413;-56
2023/11/30 04:32:53;;;;;;;25.80;12.25;;;6.70;99.90;;;;;;4248991;27;20474;-56
2023/11/30 04:34:55;;;;;;;23.65;13.02;;;6.70;99.90;;;;;;4248687;27;20043;-57
2023/11/30 04:36:57;;;;;;;15.85;11.07;;;6.70;99.90;;;;;;4248783;27;20121;-57
2023/11/30 04:38:59;;;;;;;22.92;14.35;;;6.80;99.90;;;;;;4248574;27;20359;-58
2023/11/30 04:41:01;;;;;;;23.80;14.23;;;6.80;99.90;;;;;;4248344;27;20168;-57
2023/11/30 04:43:03;;;;;;;20.63;13.63;;;6.80;99.90;;;;;;4248731;27;20051;-58
2023/11/30 04:45:06;;;;;;;21.02;14.48;;;6.90;99.90;;;;;;4248714;27;20387;-54
2023/11/30 04:47:08;;;;;;;21.67;14.68;;;6.80;99.90;;;;;;4248472;27;20043;-57
2023/11/30 04:49:12;;;;;;;24.52;12.55;;;6.80;99.90;;;;;;4248584;27;20047;-55
2023/11/30 04:51:14;;;;;;;22.95;13.00;;;6.90;99.90;;;;;;4248380;27;20134;-57
2023/11/30 04:53:16;;;;;;;22.67;14.75;;;6.80;99.90;;;;;;4248395;27;20110;-56
2023/11/30 04:55:18;;;;;;;19.70;13.57;;;6.70;99.90;;;;;;4248555;27;20421;-56
2023/11/30 04:57:20;;;;;;;24.98;14.68;;;6.80;99.90;;;;;;4248247;27;20039;-57
2023/11/30 04:59:22;;;;;;;23.02;13.15;;;6.80;99.90;;;;;;4248337;27;20047;-56
2023/11/30 05:01:24;;;;;;;19.67;12.55;;;6.70;99.90;;;;;;4248499;27;20051;-56
2023/11/30 05:03:26;;;;;;;23.23;14.00;;;6.80;99.90;;;;;;4248267;27;20062;-58
2023/11/30 05:05:30;;;;;;;19.02;13.60;;;6.70;99.90;;;;;;4248387;27;20043;-57
2023/11/30 05:07:32;;;;;;;22.05;12.93;;;6.70;99.90;;;;;;4248007;27;20131;-56
2023/11/30 05:09:34;;;;;;;19.17;12.20;;;6.70;99.90;;;;;;4248404;27;20047;-57
2023/11/30 05:11:36;;;;;;;20.17;12.63;;;6.80;99.90;;;;;;4247811;27;20118;-57
2023/11/30 05:13:38;;;;;;;21.92;13.07;;;6.80;99.90;;;;;;4248177;27;20047;-56
2023/11/30 05:15:40;;;;;;;19.48;12.02;;;6.80;99.90;;;;;;4248407;27;20051;-57
2023/11/30 05:17:42;;;;;;;22.13;13.45;;;6.80;99.90;;;;;;4247909;27;20050;-57
2023/11/30 05:19:44;;;;;;;19.33;12.98;;;6.70;99.90;;;;;;4248252;27;20051;-57
2023/11/30 05:21:48;;;;;;;20.77;12.50;;;6.80;99.90;;;;;;4247805;27;20051;-58
2023/11/30 05:23:51;;;;;;;20.83;13.30;;;6.80;99.70;;;;;;4247811;27;20047;-56
2023/11/30 05:25:53;;;;;;;18.60;11.90;;;6.70;99.90;;;;;;4247640;27;20055;-57
2023/11/30 05:27:55;;;;;;;17.92;12.85;;;6.60;99.70;;;;;;4247758;27;20054;-58
2023/11/30 05:29:57;;;;;;;18.77;12.02;;;6.70;99.90;;;;;;4247814;27;20074;-57
2023/11/30 05:31:59;;;;;;;18.77;11.48;;;6.60;99.50;;;;;;4248074;27;20043;-53
2023/11/30 05:34:02;;;;;;;18.13;12.00;;;6.50;99.80;;;;;;4247889;27;20043;-54
2023/11/30 05:36:05;;;;;;;19.73;12.13;;;6.40;99.90;;;;;;4248242;27;20096;-58
2023/11/30 05:38:08;;;;;;;21.73;11.40;;;6.40;99.90;;;;;;4248235;27;20039;-57
2023/11/30 05:40:11;;;;;;;22.67;11.80;;;6.40;99.90;;;;;;4247641;27;20490;-58
2023/11/30 05:42:13;;;;;;;20.98;11.68;;;6.30;99.90;;;;;;4248019;27;20070;-57
2023/11/30 05:44:15;;;;;;;23.23;12.13;;;6.30;99.90;;;;;;4247937;27;20393;-56
2023/11/30 05:46:18;;;;;;;20.45;11.05;;;6.30;99.90;;;;;;4248384;27;20062;-59
2023/11/30 05:48:20;;;;;;;17.58;11.60;;;6.30;99.90;;;;;;4248594;27;20043;-56
2023/11/30 05:50:22;;;;;;;17.88;11.00;;;6.20;99.90;;;;;;4230441;28;20079;-60
2023/11/30 05:52:24;;;;;;;19.25;11.65;;;6.10;99.90;;;;;;4248290;27;20071;-57
2023/11/30 05:54:28;;;;;;;18.90;12.10;;;6.20;99.90;;;;;;4247234;27;20365;-56
2023/11/30 05:56:30;;;;;;;23.63;12.43;;;6.20;99.90;;;;;;4247426;27;20043;-56
2023/11/30 05:58:32;;;;;;;14.35;10.90;;;6.20;99.90;;;;;;4247463;27;20496;-57
2023/11/30 06:00:34;;;;;;;19.70;12.15;;;6.30;99.90;;;;;;4247494;27;20410;-57
2023/11/30 06:02:36;;;;;;;30.38;14.57;;;6.30;99.90;;;;;;4247492;27;20473;-56
2023/11/30 06:04:49;;;;;;;19.20;12.20;;;6.40;99.90;;;;;;4247847;27;20043;-57
2023/11/30 06:06:51;;;;;;;20.38;13.73;;;6.40;99.90;;;;;;4247653;27;20095;-56
2023/11/30 06:08:53;;;;;;;22.42;12.25;;;6.40;99.60;;;;;;4247662;28;20338;-56
2023/11/30 06:10:56;;;;;;;22.90;12.52;;;6.30;99.90;;;;;;4247633;28;20104;-56
2023/11/30 06:12:58;;;;;;;18.17;11.52;;;6.30;99.90;;;;;;4248171;28;20324;-65
2023/11/30 06:15:01;;;;;;;17.73;10.93;;;6.20;99.90;;;;;;4248193;28;20071;-58
2023/11/30 06:17:03;;;;;;;16.65;10.90;;;6.20;99.90;;;;;;4247247;28;20112;-56
2023/11/30 06:19:05;;;;;;;18.38;11.07;;;6.20;99.90;;;;;;4247498;28;20135;-57
2023/11/30 06:21:09;;;;;;;23.05;10.23;;;6.20;99.90;;;;;;4229239;28;20048;-57
2023/11/30 06:23:13;;;;;;;19.67;10.73;;;6.20;99.90;;;;;;4246906;28;20092;-57
2023/11/30 06:25:15;;;;;;;16.02;10.85;;;6.30;99.90;;;;;;4247341;28;20049;-56
2023/11/30 06:27:21;;;;;;;14.98;10.20;;;6.30;99.60;;;;;;4247420;28;20047;-56
2023/11/30 06:29:24;;;;;;;19.30;9.65;;;6.30;99.60;;;;;;4247230;28;20221;-58
2023/11/30 06:31:26;;;;;;;21.45;9.60;;;6.30;99.50;;;;;;4247376;28;20096;-56
2023/11/30 06:33:28;;;;;;;17.85;9.82;;;6.30;99.70;;;;;;4247181;28;20047;-57
2023/11/30 06:35:30;;;;;;;16.67;9.57;;;6.30;99.50;;;;;;4247228;28;20039;-57
2023/11/30 06:37:32;;;;;;;13.32;8.82;;;6.30;99.90;;;;;;4247345;28;20039;-57
2023/11/30 06:39:34;;;;;;;16.92;8.65;;;6.20;99.50;;;;;;4228874;28;20063;-57
2023/11/30 06:41:36;;;;;;;13.70;9.15;;;6.20;99.70;;;;;;4247385;28;20108;-57
2023/11/30 06:43:40;;;;;;;18.95;9.13;;;6.20;99.40;;;;;;4247379;28;20043;-55
2023/11/30 06:45:43;;;;;;;17.38;8.70;;;6.20;99.20;;;;;;4249569;28;20043;-62
2023/11/30 06:47:46;;;;;;;24.30;9.93;;;6.20;99.40;;;;;;4249479;27;20044;-58
2023/11/30 06:49:48;;;;;;;19.00;9.60;;;6.20;99.50;;;;;;4251781;27;20055;-58
2023/11/30 06:51:50;;;;;;;17.45;9.45;;;6.20;99.50;;;;;;4250535;27;20031;-58
2023/11/30 06:53:52;;;;;;;23.38;8.35;;;6.20;99.80;;;;;;4251278;27;20073;-58
2023/11/30 06:55:54;;;;;;;18.42;9.27;;;6.20;99.60;;;;;;4250798;27;20046;-57
2023/11/30 06:57:56;;;;;;;19.23;9.45;;;6.20;99.90;;;;;;4251254;27;20062;-58
2023/11/30 07:00:00;;;;;;;15.77;9.07;;;6.20;99.80;;;;;;4251151;27;20065;-56
2023/11/30 07:02:02;;;;;;;17.17;8.75;;;6.10;99.90;;;;;;4251087;27;20486;-57
2023/11/30 07:04:05;;;;;;;19.48;8.23;;;6.20;99.90;;;;;;4250921;27;20061;-56
2023/11/30 07:06:08;;;;;;;11.75;8.40;;;6.20;99.90;;;;;;4250547;27;20130;-57
2023/11/30 07:08:11;;;;;;;20.60;10.20;;;6.40;99.40;;;;;;4250617;27;20050;-57
2023/11/30 07:10:13;;;;;;;13.65;8.65;;;6.30;99.50;;;;;;4250328;27;20412;-57
2023/11/30 07:12:15;;;;;;;25.83;9.82;;;6.30;99.90;;;;;;4246098;27;20401;-57
2023/11/30 07:14:17;;;;;;;19.88;8.73;;;6.30;99.90;;;;;;4233241;28;20040;-58
2023/11/30 07:16:21;;;;;;;17.95;8.90;;;6.50;99.90;;;;;;4232935;28;20035;-58
2023/11/30 07:18:23;;;;;;;20.55;10.55;;;6.30;99.20;;;;;;4233183;28;20109;-56
2023/11/30 07:20:25;;;;;;;19.92;8.95;;;6.30;99.30;;;;;;4214992;28;20472;-57
2023/11/30 07:22:28;;;;;;;19.80;10.02;;;6.30;99.40;;;;;;4232941;28;20053;-58
2023/11/30 07:24:30;;;;;;;18.50;9.60;;;6.30;99.30;;;;;;4233015;28;20134;-57
2023/11/30 07:26:33;;;;;;;28.35;10.45;;;6.40;99.30;;;;;;4232932;28;20124;-56
2023/11/30 07:28:35;;;;;;;26.50;10.23;;;6.30;99.10;;;;;;4232569;28;20051;-56
2023/11/30 07:30:40;;;;;;;18.40;8.98;;;6.40;99.70;;;;;;4231291;28;20044;-59
2023/11/30 07:32:44;;;;;;;20.65;9.93;;;6.30;99.90;;;;;;4232828;28;20047;-55
2023/11/30 07:34:46;;;;;;;18.67;9.25;;;6.30;99.40;;;;;;4233024;28;20101;-56
2023/11/30 07:36:48;;;;;;;18.10;9.93;;;6.30;99.50;;;;;;4232479;28;20047;-57
2023/11/30 07:38:50;;;;;;;21.85;10.23;;;6.30;99.20;;;;;;4232837;28;20046;-58
2023/11/30 07:40:53;;;;;;;22.27;9.68;;;6.30;99.50;;;;;;4232574;28;20040;-57
2023/11/30 07:42:56;;;;;;;24.13;9.18;;;6.20;99.00;;;;;;4232702;28;20130;-56
2023/11/30 07:44:58;;;;;;;25.88;9.68;;;6.30;99.20;;;;;;4233841;28;20055;-56
2023/11/30 07:47:01;;;;;;;21.40;9.05;;;6.20;99.20;;;;;;4215156;28;20044;-57
2023/11/30 07:49:04;;;;;;;22.40;9.60;;;6.30;99.20;;;;;;4233499;28;20471;-57
2023/11/30 07:51:07;;;;;;;22.60;9.05;;;6.30;98.90;;;;;;4232825;28;20108;-56
2023/11/30 07:53:09;;;;;;;30.90;9.23;;;6.30;98.80;;;;;;4233241;27;20097;-57
2023/11/30 07:55:12;;;;;;;47.92;12.45;;;6.30;99.30;;;;;;4232587;28;20043;-56
2023/11/30 07:57:14;;;;;;;44.58;12.00;;;6.20;98.80;;;;;;4234167;27;20048;-56
2023/11/30 07:59:16;;;;;;;31.02;11.25;;;6.10;99.00;;;;;;4249077;27;20477;-57
2023/11/30 08:01:19;;;;;;;36.13;10.75;;;6.10;99.20;;;;;;4249197;27;20043;-57
2023/11/30 08:03:22;;;;;;;20.00;10.88;;;6.10;99.10;;;;;;4249502;27;20048;-57
2023/11/30 08:05:25;;;;;;;23.65;11.32;;;6.10;99.00;;;;;;4249019;27;20039;-62
2023/11/30 08:07:27;;;;;;;21.48;10.57;;;6.00;99.20;;;;;;4249353;27;20047;-56
2023/11/30 08:09:30;;;;;;;19.17;10.40;;;6.00;99.10;;;;;;4249026;27;20130;-57
2023/11/30 08:11:33;;;;;;;24.70;9.60;;;6.00;99.10;;;;;;4250947;27;20196;-56
2023/11/30 08:13:35;;;;;;;20.58;10.63;;;5.90;99.10;;;;;;4249760;27;20054;-57
2023/11/30 08:15:37;;;;;;;29.42;10.35;;;5.90;99.20;;;;;;4249062;27;20043;-57
2023/11/30 08:17:40;;;;;;;27.75;11.05;;;5.80;99.50;;;;;;4230706;28;20054;-57
2023/11/30 08:19:43;;;;;;;20.48;9.80;;;5.80;99.40;;;;;;4248608;27;20494;-56
2023/11/30 08:21:47;;;;;;;28.00;10.40;;;5.70;99.60;;;;;;4248587;27;20375;-58
2023/11/30 08:23:49;;;;;;;24.30;9.85;;;5.80;99.40;;;;;;4243373;27;20039;-57
2023/11/30 08:25:51;;;;;;;24.00;9.38;;;5.70;99.20;;;;;;4248891;27;20062;-57
2023/11/30 08:27:53;;;;;;;23.00;10.07;;;5.70;99.10;;;;;;4248801;27;20358;-57
2023/11/30 08:29:56;;;;;;;26.27;9.70;;;5.70;99.40;;;;;;4248605;27;20055;-58
2023/11/30 08:31:58;;;;;;;25.25;9.73;;;5.60;99.30;;;;;;4248802;27;20469;-62
2023/11/30 08:34:00;;;;;;;23.27;9.48;;;5.70;99.30;;;;;;4248288;27;20043;-57
2023/11/30 08:36:04;;;;;;;25.77;9.35;;;5.70;99.30;;;;;;4248501;27;20051;-57
2023/11/30 08:38:09;;;;;;;19.88;10.18;;;5.70;99.20;;;;;;4248609;27;20113;-57
2023/11/30 08:40:11;;;;;;;32.75;10.27;;;5.70;99.10;;;;;;4248779;27;20039;-57
2023/11/30 08:42:14;;;;;;;25.98;10.35;;;5.70;99.00;;;;;;4230340;28;20467;-57
2023/11/30 08:44:16;;;;;;;21.27;9.90;;;5.70;99.10;;;;;;4248657;27;20442;-58
2023/11/30 08:46:18;;;;;;;24.13;10.73;;;5.60;99.40;;;;;;4248631;27;20485;-56
2023/11/30 08:48:21;;;;;;;20.20;10.30;;;5.60;99.50;;;;;;4248024;27;20039;-58
2023/11/30 08:50:23;;;;;;;27.30;10.57;;;5.60;99.40;;;;;;4246233;27;20050;-57
2023/11/30 08:52:25;;;;;;;18.08;9.55;;;5.60;99.40;;;;;;4247815;27;20059;-57
2023/11/30 08:54:28;;;;;;;30.23;11.38;;;5.50;99.50;;;;;;4247638;27;20051;-56
2023/11/30 08:56:31;;;;;;;19.42;9.70;;;5.60;99.30;;;;;;4247878;27;20047;-57
2023/11/30 08:58:33;;;;;;;23.00;10.45;;;5.50;99.30;;;;;;4247724;27;20043;-57
2023/11/30 09:00:39;;;;;;;25.00;10.52;;;5.50;99.20;;;;;;4247699;27;20061;-58
2023/11/30 09:02:41;;;;;;;20.17;9.93;;;5.50;99.20;;;;;;4248288;27;20063;-56
2023/11/30 09:04:44;;;;;;;24.25;9.32;;;5.50;99.20;;;;;;4248378;27;20451;-59
2023/11/30 09:06:46;;;;;;;25.05;10.23;;;5.40;99.20;;;;;;4248716;27;20059;-58
2023/11/30 09:08:48;;;;;;;31.48;11.25;;;5.40;99.20;;;;;;4247399;27;20119;-56
2023/11/30 09:10:52;;;;;;;31.58;11.23;;;5.40;99.30;;;;;;4246693;27;20049;-57
2023/11/30 09:12:54;;;;;;;16.00;10.15;;;5.40;99.30;;;;;;4237952;27;20067;-57
2023/11/30 09:14:56;;;;;;;22.10;10.93;;;5.40;99.60;;;;;;4230309;28;20104;-57
2023/11/30 09:17:01;;;;;;;25.27;11.68;;;5.40;99.70;;;;;;4211644;28;20122;-58
2023/11/30 09:19:06;;;;;;;20.95;11.18;;;5.40;99.70;;;;;;4230040;28;20051;-57
2023/11/30 09:21:08;;;;;;;22.83;11.95;;;5.50;99.60;;;;;;4232700;27;20046;-57
2023/11/30 09:23:11;;;;;;;29.77;11.35;;;5.50;99.80;;;;;;4239197;27;20123;-56
2023/11/30 09:25:13;;;;;;;20.25;10.77;;;5.50;99.90;;;;;;4235470;27;20088;-56
2023/11/30 09:27:17;;;;;;;25.60;11.73;;;5.50;99.90;;;;;;4245582;27;20047;-57
2023/11/30 09:29:20;;;;;;;23.58;9.45;;;5.50;99.90;;;;;;4244495;27;20406;-57
2023/11/30 09:31:22;;;;;;;29.08;10.30;;;5.90;99.40;;;;;;4244460;27;20128;-57
2023/11/30 09:33:26;;;;;;;21.60;9.85;;;6.00;98.90;;;;;;4234593;27;20448;-57
2023/11/30 09:35:28;;;;;;;20.98;9.73;;;6.00;98.70;;;;;;4231020;28;20050;-57
2023/11/30 09:37:32;;;;;;;20.67;9.80;;;6.00;98.40;;;;;;4230531;28;20071;-56
2023/11/30 09:39:38;;;;;;;20.38;10.02;;;6.00;98.70;;;;;;4213070;28;20058;-56
2023/11/30 09:41:40;;;;;;;16.40;9.50;;;6.10;98.40;;;;;;4238820;27;20044;-61
2023/11/30 09:43:45;;;;;;;25.75;9.73;;;6.00;98.40;;;;;;4244818;27;20047;-54
2023/11/30 09:45:49;;;;;;;20.45;8.98;;;6.10;98.30;;;;;;4246797;27;20085;-57
2023/11/30 09:47:51;;;;;;;18.45;8.75;;;6.10;98.10;;;;;;4246933;27;20043;-57
2023/11/30 09:49:54;;;;;;;20.35;9.77;;;6.10;98.10;;;;;;4247231;27;20043;-56
2023/11/30 09:51:56;;;;;;;27.67;9.93;;;6.00;98.20;;;;;;4244043;27;20082;-56
2023/11/30 09:53:59;;;;;;;22.67;9.68;;;6.10;98.30;;;;;;4246690;27;20068;-58
2023/11/30 09:56:01;;;;;;;30.73;10.45;;;6.20;98.00;;;;;;4246967;27;20039;-58
2023/11/30 09:58:05;;;;;;;28.00;10.27;;;6.20;98.10;;;;;;4245248;27;20043;-57
2023/11/30 10:00:10;;;;;;;;;;;6.30;98.30;;;;;;4242077;27;20474;-57
2023/11/30 10:02:12;;;;;;;23.98;9.75;;;6.30;98.00;;;;;;4240779;28;19929;-57
2023/11/30 10:04:18;;;;;;;22.00;9.25;;;6.30;98.40;;;;;;4238512;27;20126;-57
2023/11/30 10:06:20;;;;;;;21.58;8.20;;;6.50;98.50;;;;;;4240920;27;20425;-57
2023/11/30 10:08:22;;;;;;;23.45;8.52;;;6.70;97.90;;;;;;4239315;27;20501;-56
2023/11/30 10:10:24;;;;;;;18.60;7.40;;;6.60;98.20;;;;;;4241879;28;20050;-56
2023/11/30 10:12:26;;;;;;;16.25;8.70;;;6.80;98.10;;;;;;4236374;27;20039;-56
2023/11/30 10:14:28;;;;;;;22.92;9.00;;;7.00;97.50;;;;;;4245904;28;20421;-56
2023/11/30 10:16:32;;;;;;;18.10;9.18;;;7.00;97.20;;;;;;4227771;28;20054;-57
2023/11/30 10:18:35;;;;;;;20.65;8.60;;;7.10;97.50;;;;;;4228254;28;20043;-57
2023/11/30 10:20:37;;;;;;;15.60;8.57;;;7.30;97.70;;;;;;4246749;28;20054;-57
2023/11/30 10:22:39;;;;;;;20.77;9.10;;;7.40;97.30;;;;;;4247534;27;20373;-57
2023/11/30 10:24:42;;;;;;;22.27;9.77;;;7.70;97.30;;;;;;4250099;27;20040;-56
2023/11/30 10:26:48;;;;;;;21.00;8.73;;;8.00;96.40;;;;;;4249768;27;20054;-56
2023/11/30 10:28:52;;;;;;;22.77;9.35;;;8.00;96.00;;;;;;4247684;27;20071;-59
2023/11/30 10:30:57;;;;;;;23.55;9.25;;;7.80;96.20;;;;;;4241811;27;20406;-57
2023/11/30 10:33:03;;;;;;;;;;;7.90;96.30;;;;;;4250036;27;20139;-57